Time;durP1;ratioP1;P1;durP2;ratioP2;P2;SDS_P1;SDS_P2;PMS_P1;PMS_P2;Temp;Humidity;BMP_temperature;BMP_pressure;BME280_temperature;BME280_humidity;BME280_pressure;Samples;Min_cycle;Max_cycle;Signal;HPM_P1;HPM_P2
2021/01/05 00:01:06;;;;;;;16.58;7.43;;;;;;;;;;5066217;28;20063;-57
2021/01/05 00:03:32;;;;;;;16.13;7.07;;;;;;;;;;5069151;28;20040;-58
2021/01/05 00:05:58;;;;;;;11.45;6.13;;;;;;;;;;5066576;28;20166;-59
2021/01/05 00:08:24;;;;;;;11.30;6.85;;;;;;;;;;5061634;28;20048;-59
2021/01/05 00:10:50;;;;;;;11.20;6.35;;;;;;;;;;5068143;28;20355;-59
2021/01/05 00:13:16;;;;;;;11.77;6.97;;;;;;;;;;5062904;28;21346;-59
2021/01/05 00:15:42;;;;;;;11.23;6.30;;;;;;;;;;5066429;28;20058;-59
2021/01/05 00:18:08;;;;;;;11.35;6.90;;;;;;;;;;5071107;28;20539;-59
2021/01/05 00:20:34;;;;;;;10.30;6.90;;;;;;;;;;5061933;28;20112;-59
2021/01/05 00:23:00;;;;;;;13.18;6.22;;;;;;;;;;5070076;28;20036;-58
2021/01/05 00:25:27;;;;;;;14.73;7.18;;;;;;;;;;5070507;28;20563;-59
2021/01/05 00:27:53;;;;;;;11.98;6.70;;;;;;;;;;5068320;28;20111;-59
2021/01/05 00:30:21;;;;;;;9.68;5.85;;;;;;;;;;5067705;28;20039;-58
2021/01/05 00:32:48;;;;;;;15.02;6.75;;;;;;;;;;5069241;28;20077;-59
2021/01/05 00:35:15;;;;;;;11.48;6.55;;;;;;;;;;5063655;28;20040;-59
2021/01/05 00:37:41;;;;;;;10.40;6.55;;;;;;;;;;5069026;28;22164;-59
2021/01/05 00:40:08;;;;;;;10.05;6.47;;;;;;;;;;5063580;28;20050;-58
2021/01/05 00:42:34;;;;;;;10.20;5.70;;;;;;;;;;5048797;28;20044;-58
2021/01/05 00:45:00;;;;;;;11.60;5.88;;;;;;;;;;5065875;28;20055;-59
2021/01/05 00:47:26;;;;;;;9.43;6.28;;;;;;;;;;5061841;28;20059;-59
2021/01/05 00:49:52;;;;;;;11.23;6.15;;;;;;;;;;5066237;28;20045;-59
2021/01/05 00:52:18;;;;;;;11.90;5.80;;;;;;;;;;5058925;28;20032;-59
2021/01/05 00:54:44;;;;;;;8.65;5.55;;;;;;;;;;5066368;28;20578;-58
2021/01/05 00:57:11;;;;;;;9.65;5.38;;;;;;;;;;5064516;28;20040;-59
2021/01/05 00:59:37;;;;;;;9.35;5.70;;;;;;;;;;5059750;28;20099;-58
2021/01/05 01:02:04;;;;;;;8.32;5.35;;;;;;;;;;5065131;28;20048;-58
2021/01/05 01:04:31;;;;;;;12.45;6.47;;;;;;;;;;5066053;28;20048;-59
2021/01/05 01:06:57;;;;;;;9.20;5.78;;;;;;;;;;5063158;28;20033;-59
2021/01/05 01:09:23;;;;;;;11.30;5.60;;;;;;;;;;5060231;28;20047;-58
2021/01/05 01:11:56;;;;;;;10.52;6.40;;;;;;;;;;5063776;28;20024;-59
2021/01/05 01:14:22;;;;;;;9.63;5.82;;;;;;;;;;5045639;28;20052;-59
2021/01/05 01:16:48;;;;;;;9.18;5.07;;;;;;;;;;5065466;28;20183;-59
2021/01/05 01:19:14;;;;;;;9.45;5.53;;;;;;;;;;5056749;28;20032;-57
2021/01/05 01:21:47;;;;;;;11.35;6.18;;;;;;;;;;5059817;28;20039;-58
2021/01/05 01:24:13;;;;;;;11.20;5.95;;;;;;;;;;5062012;28;20082;-58
2021/01/05 01:26:39;;;;;;;12.45;6.03;;;;;;;;;;5060336;28;20230;-58
2021/01/05 01:29:05;;;;;;;11.18;5.88;;;;;;;;;;5057146;28;20061;-58
2021/01/05 01:31:33;;;;;;;15.98;7.03;;;;;;;;;;5057762;28;20032;-58
2021/01/05 01:33:59;;;;;;;8.32;5.22;;;;;;;;;;5066582;28;20146;-58
2021/01/05 01:36:25;;;;;;;9.60;5.25;;;;;;;;;;5048101;28;20050;-58
2021/01/05 01:38:51;;;;;;;10.90;6.38;;;;;;;;;;5056596;28;20055;-59
2021/01/05 01:41:17;;;;;;;9.82;5.88;;;;;;;;;;5054825;28;20544;-59
2021/01/05 01:43:45;;;;;;;9.88;5.40;;;;;;;;;;5053176;28;20670;-58
2021/01/05 01:46:13;;;;;;;10.15;5.70;;;;;;;;;;5052539;28;20043;-58
2021/01/05 01:48:39;;;;;;;11.27;5.80;;;;;;;;;;5052588;28;20386;-59
2021/01/05 01:51:06;;;;;;;9.23;5.55;;;;;;;;;;5050396;28;20404;-58
2021/01/05 01:53:44;;;;;;;8.50;5.35;;;;;;;;;;5053631;28;22068;-59
2021/01/05 01:56:25;;;;;;;10.30;5.18;;;;;;;;;;5061132;28;20623;-58
2021/01/05 01:59:14;;;;;;;8.88;4.82;;;;;;;;;;5051699;28;20051;-58
2021/01/05 02:02:00;;;;;;;10.10;5.55;;;;;;;;;;4999329;28;20399;-58
2021/01/05 02:04:43;;;;;;;6.38;4.60;;;;;;;;;;5058892;28;20067;-59
2021/01/05 02:07:09;;;;;;;8.60;4.82;;;;;;;;;;5054299;28;20094;-59
2021/01/05 02:09:46;;;;;;;10.30;5.15;;;;;;;;;;5049052;28;20728;-59
2021/01/05 02:12:19;;;;;;;9.80;5.20;;;;;;;;;;5057508;28;20330;-58
2021/01/05 02:14:52;;;;;;;11.07;5.28;;;;;;;;;;5056380;28;20037;-59
2021/01/05 02:17:18;;;;;;;9.15;4.55;;;;;;;;;;5063056;28;20036;-59
2021/01/05 02:19:53;;;;;;;7.47;4.63;;;;;;;;;;5052495;28;20040;-59
2021/01/05 02:22:26;;;;;;;10.55;5.07;;;;;;;;;;5057216;28;20502;-59
2021/01/05 02:25:08;;;;;;;7.38;4.50;;;;;;;;;;5057335;28;20445;-58
2021/01/05 02:27:38;;;;;;;10.38;5.05;;;;;;;;;;5060238;28;20044;-59
2021/01/05 02:30:07;;;;;;;9.73;5.13;;;;;;;;;;5059541;28;20443;-58
2021/01/05 02:32:51;;;;;;;7.68;4.47;;;;;;;;;;5055640;28;20051;-59
2021/01/05 02:35:17;;;;;;;7.20;4.22;;;;;;;;;;5055346;28;20216;-58
2021/01/05 02:38:04;;;;;;;8.93;5.10;;;;;;;;;;5060522;28;20051;-60
2021/01/05 02:40:33;;;;;;;7.75;4.43;;;;;;;;;;5057897;28;20564;-59
2021/01/05 02:43:20;;;;;;;8.60;4.45;;;;;;;;;;5056077;28;20098;-58
2021/01/05 02:45:53;;;;;;;9.57;4.72;;;;;;;;;;5064181;28;20028;-59
2021/01/05 02:48:45;;;;;;;10.20;4.50;;;;;;;;;;5060306;28;20477;-59
2021/01/05 02:51:27;;;;;;;9.85;4.72;;;;;;;;;;5022051;28;20033;-59
2021/01/05 02:54:12;;;;;;;8.95;4.80;;;;;;;;;;5054373;28;20033;-58
2021/01/05 02:56:57;;;;;;;10.13;5.43;;;;;;;;;;5053475;28;20040;-59
2021/01/05 02:59:23;;;;;;;9.63;5.00;;;;;;;;;;5057427;28;20074;-59
2021/01/05 03:02:07;;;;;;;10.65;5.80;;;;;;;;;;5061279;28;20040;-59
2021/01/05 03:04:33;;;;;;;9.38;5.57;;;;;;;;;;5066863;28;20066;-58
2021/01/05 03:07:01;;;;;;;11.32;5.70;;;;;;;;;;5058312;28;20583;-59
2021/01/05 03:09:48;;;;;;;11.27;5.95;;;;;;;;;;5053882;28;20070;-59
2021/01/05 03:12:17;;;;;;;10.48;5.80;;;;;;;;;;5009628;28;20405;-58
2021/01/05 03:14:56;;;;;;;10.38;5.60;;;;;;;;;;5058656;28;20113;-59
2021/01/05 03:17:26;;;;;;;11.88;5.70;;;;;;;;;;5065015;28;20098;-59
2021/01/05 03:19:52;;;;;;;8.60;5.15;;;;;;;;;;5056349;28;20120;-59
2021/01/05 03:22:19;;;;;;;12.70;5.60;;;;;;;;;;5058805;28;20040;-59
2021/01/05 03:24:46;;;;;;;13.27;5.75;;;;;;;;;;5062274;28;20676;-59
2021/01/05 03:27:14;;;;;;;11.23;5.85;;;;;;;;;;5059936;28;20489;-59
2021/01/05 03:29:40;;;;;;;8.50;5.63;;;;;;;;;;5064737;28;20517;-59
2021/01/05 03:32:08;;;;;;;9.70;5.35;;;;;;;;;;5064245;28;20037;-59
2021/01/05 03:34:34;;;;;;;12.57;5.57;;;;;;;;;;5060263;28;20036;-59
2021/01/05 03:37:00;;;;;;;12.48;5.72;;;;;;;;;;5054888;28;20040;-58
2021/01/05 03:39:26;;;;;;;11.07;5.90;;;;;;;;;;5060765;28;20459;-58
2021/01/05 03:41:52;;;;;;;11.82;5.65;;;;;;;;;;5066225;28;20507;-59
2021/01/05 03:44:19;;;;;;;12.05;5.50;;;;;;;;;;5069589;28;20041;-58
2021/01/05 03:46:45;;;;;;;15.18;6.10;;;;;;;;;;5061450;28;20032;-59
2021/01/05 03:49:11;;;;;;;12.68;5.60;;;;;;;;;;5055818;28;20069;-59
2021/01/05 03:51:37;;;;;;;12.10;6.20;;;;;;;;;;5055814;28;20529;-58
2021/01/05 03:54:03;;;;;;;10.70;5.38;;;;;;;;;;5065281;28;20032;-59
2021/01/05 03:56:29;;;;;;;10.18;5.53;;;;;;;;;;5064349;28;20063;-59
2021/01/05 03:58:55;;;;;;;11.25;6.05;;;;;;;;;;5065263;28;20789;-63
2021/01/05 04:01:20;;;;;;;12.73;6.47;;;;;;;;;;5063625;28;20051;-63
2021/01/05 04:03:46;;;;;;;10.10;5.32;;;;;;;;;;5051497;28;20032;-63
2021/01/05 04:06:12;;;;;;;11.75;5.50;;;;;;;;;;5066405;28;20385;-59
2021/01/05 04:08:39;;;;;;;13.18;5.63;;;;;;;;;;5057189;28;20040;-59
2021/01/05 04:11:05;;;;;;;14.93;6.35;;;;;;;;;;5066181;28;20090;-59
2021/01/05 04:13:31;;;;;;;13.90;6.40;;;;;;;;;;5068578;28;20029;-59
2021/01/05 04:15:57;;;;;;;10.13;5.88;;;;;;;;;;5057873;28;20041;-58
2021/01/05 04:18:23;;;;;;;12.00;5.78;;;;;;;;;;5038503;28;20499;-58
2021/01/05 04:20:49;;;;;;;12.23;6.05;;;;;;;;;;5057206;28;20036;-58
2021/01/05 04:23:15;;;;;;;14.70;6.10;;;;;;;;;;5064110;28;20135;-59
2021/01/05 04:25:42;;;;;;;11.15;6.13;;;;;;;;;;5062891;28;20054;-59
2021/01/05 04:28:08;;;;;;;10.27;5.78;;;;;;;;;;5055608;28;20036;-59
2021/01/05 04:30:35;;;;;;;8.85;5.97;;;;;;;;;;5052607;28;20043;-59
2021/01/05 04:33:03;;;;;;;9.23;5.35;;;;;;;;;;5061088;28;20040;-59
2021/01/05 04:35:29;;;;;;;12.55;6.35;;;;;;;;;;5058030;28;20078;-59
2021/01/05 04:37:55;;;;;;;9.55;5.93;;;;;;;;;;5057643;28;20131;-58
2021/01/05 04:40:27;;;;;;;12.32;5.75;;;;;;;;;;5054480;28;20067;-59
2021/01/05 04:43:06;;;;;;;13.98;6.65;;;;;;;;;;5053612;28;20498;-59
2021/01/05 04:45:33;;;;;;;8.15;5.05;;;;;;;;;;5055559;28;20117;-58
2021/01/05 04:48:03;;;;;;;10.02;5.47;;;;;;;;;;5058394;28;20490;-59
2021/01/05 04:50:46;;;;;;;9.48;5.15;;;;;;;;;;5054697;28;20047;-58
2021/01/05 04:53:18;;;;;;;9.68;5.10;;;;;;;;;;5058709;28;20063;-58
2021/01/05 04:56:05;;;;;;;8.73;5.40;;;;;;;;;;5058095;28;20430;-58
2021/01/05 04:58:50;;;;;;;10.32;5.07;;;;;;;;;;5054988;28;20040;-59
2021/01/05 05:01:36;;;;;;;10.30;5.07;;;;;;;;;;5055733;28;20033;-59
2021/01/05 05:04:11;;;;;;;9.68;5.00;;;;;;;;;;5041170;28;20123;-59
2021/01/05 05:06:37;;;;;;;10.93;5.38;;;;;;;;;;5055411;28;20052;-58
2021/01/05 05:09:06;;;;;;;8.07;5.10;;;;;;;;;;5055847;28;20517;-59
2021/01/05 05:11:39;;;;;;;12.68;5.15;;;;;;;;;;5056720;28;20102;-59
2021/01/05 05:14:11;;;;;;;11.75;5.03;;;;;;;;;;5056494;28;20029;-59
2021/01/05 05:16:37;;;;;;;11.38;4.95;;;;;;;;;;5054566;28;20033;-58
2021/01/05 05:19:12;;;;;;;9.52;5.30;;;;;;;;;;5055335;28;20039;-59
2021/01/05 05:21:46;;;;;;;12.27;5.18;;;;;;;;;;5056682;28;20045;-58
2021/01/05 05:24:16;;;;;;;6.97;4.10;;;;;;;;;;5057954;28;20078;-59
2021/01/05 05:26:56;;;;;;;9.55;4.72;;;;;;;;;;5054798;28;20712;-58
2021/01/05 05:29:34;;;;;;;7.53;4.03;;;;;;;;;;5045349;28;20477;-58
2021/01/05 05:32:02;;;;;;;5.93;3.88;;;;;;;;;;5058642;28;20512;-59
2021/01/05 05:34:33;;;;;;;6.28;3.90;;;;;;;;;;5061884;28;20040;-58
2021/01/05 05:37:15;;;;;;;8.13;4.00;;;;;;;;;;5046599;28;20040;-59
2021/01/05 05:39:50;;;;;;;7.68;4.07;;;;;;;;;;5057514;28;20043;-59
2021/01/05 05:42:35;;;;;;;11.50;4.30;;;;;;;;;;5057634;28;20039;-59
2021/01/05 05:45:03;;;;;;;6.65;3.78;;;;;;;;;;5055039;28;20036;-59
2021/01/05 05:47:33;;;;;;;6.45;3.75;;;;;;;;;;5049823;28;20135;-59
2021/01/05 05:50:05;;;;;;;4.88;2.88;;;;;;;;;;5054881;28;20051;-58
2021/01/05 05:52:34;;;;;;;5.55;3.60;;;;;;;;;;5057030;28;20021;-59
2021/01/05 05:55:02;;;;;;;8.07;3.60;;;;;;;;;;5062405;28;21464;-58
2021/01/05 05:57:30;;;;;;;7.15;3.60;;;;;;;;;;5055018;28;20492;-59
2021/01/05 06:00:09;;;;;;;7.45;4.00;;;;;;;;;;5051622;28;20040;-58
2021/01/05 06:02:35;;;;;;;6.28;3.72;;;;;;;;;;5050332;28;20322;-59
2021/01/05 06:05:15;;;;;;;5.70;3.40;;;;;;;;;;5035244;28;20089;-59
2021/01/05 06:07:41;;;;;;;8.13;4.10;;;;;;;;;;5043454;28;20103;-58
2021/01/05 06:10:07;;;;;;;9.75;4.85;;;;;;;;;;5039662;28;20684;-59
2021/01/05 06:12:33;;;;;;;4.78;2.92;;;;;;;;;;5057344;28;20041;-58
2021/01/05 06:14:59;;;;;;;7.80;3.30;;;;;;;;;;5058047;28;20497;-58
2021/01/05 06:17:25;;;;;;;9.73;3.65;;;;;;;;;;5059740;28;20138;-59
2021/01/05 06:19:51;;;;;;;5.70;3.53;;;;;;;;;;5061830;28;20090;-59
2021/01/05 06:22:17;;;;;;;9.13;4.25;;;;;;;;;;5059466;28;20385;-59
2021/01/05 06:24:43;;;;;;;8.63;3.85;;;;;;;;;;5059477;28;20040;-59
2021/01/05 06:27:08;;;;;;;6.75;3.85;;;;;;;;;;5059129;28;20443;-59
2021/01/05 06:29:34;;;;;;;5.85;3.30;;;;;;;;;;5053197;28;20047;-59
2021/01/05 06:32:00;;;;;;;11.15;4.03;;;;;;;;;;5054971;28;20198;-59
2021/01/05 06:34:26;;;;;;;7.50;4.10;;;;;;;;;;5047119;28;20044;-59
2021/01/05 06:36:52;;;;;;;7.72;4.07;;;;;;;;;;5062333;28;20535;-59
2021/01/05 06:39:18;;;;;;;7.88;3.85;;;;;;;;;;5056384;28;20043;-59
2021/01/05 06:41:44;;;;;;;10.05;4.45;;;;;;;;;;5064797;28;20032;-59
2021/01/05 06:44:10;;;;;;;8.95;4.38;;;;;;;;;;5059188;28;20028;-59
2021/01/05 06:46:36;;;;;;;6.78;3.97;;;;;;;;;;5059149;28;20035;-58
2021/01/05 06:49:02;;;;;;;7.50;4.53;;;;;;;;;;5055489;28;20555;-59
2021/01/05 06:51:28;;;;;;;11.48;4.82;;;;;;;;;;5063089;28;20044;-59
2021/01/05 06:53:54;;;;;;;9.25;4.85;;;;;;;;;;5064282;28;20028;-58
2021/01/05 06:56:20;;;;;;;9.55;5.32;;;;;;;;;;5065688;28;20028;-59
2021/01/05 06:58:46;;;;;;;10.88;4.80;;;;;;;;;;5062933;28;20115;-59
2021/01/05 07:01:12;;;;;;;11.38;5.25;;;;;;;;;;5057692;28;20036;-59
2021/01/05 07:03:38;;;;;;;9.48;4.93;;;;;;;;;;5063749;28;20605;-59
2021/01/05 07:06:04;;;;;;;11.32;5.63;;;;;;;;;;5058005;28;21375;-59
2021/01/05 07:08:30;;;;;;;15.07;5.60;;;;;;;;;;5059710;28;20074;-58
2021/01/05 07:10:56;;;;;;;9.88;5.43;;;;;;;;;;5070744;28;20037;-59
2021/01/05 07:13:22;;;;;;;12.93;5.93;;;;;;;;;;5070744;28;20038;-59
2021/01/05 07:15:48;;;;;;;11.45;5.63;;;;;;;;;;5063391;28;20535;-59
2021/01/05 07:18:14;;;;;;;9.50;5.78;;;;;;;;;;5065452;28;20032;-59
2021/01/05 07:20:40;;;;;;;10.52;5.63;;;;;;;;;;5050115;28;20033;-59
2021/01/05 07:23:06;;;;;;;9.52;5.47;;;;;;;;;;5057320;28;20460;-59
2021/01/05 07:25:32;;;;;;;12.45;6.13;;;;;;;;;;5063245;28;20055;-59
2021/01/05 07:27:58;;;;;;;14.00;6.35;;;;;;;;;;5060627;28;20418;-59
2021/01/05 07:30:24;;;;;;;10.63;6.43;;;;;;;;;;5064380;28;20085;-59
2021/01/05 07:32:50;;;;;;;9.80;5.65;;;;;;;;;;5050954;28;20037;-59
2021/01/05 07:35:16;;;;;;;12.77;5.30;;;;;;;;;;5051857;28;20055;-59
2021/01/05 07:37:43;;;;;;;12.18;6.60;;;;;;;;;;5062734;28;20526;-59
2021/01/05 07:40:10;;;;;;;12.45;6.07;;;;;;;;;;5054722;28;20047;-58
2021/01/05 07:42:36;;;;;;;13.63;6.28;;;;;;;;;;5057649;28;20036;-59
2021/01/05 07:45:08;;;;;;;13.90;6.93;;;;;;;;;;5063446;28;20402;-58
2021/01/05 07:47:35;;;;;;;13.32;6.97;;;;;;;;;;5062385;28;20066;-59
2021/01/05 07:50:02;;;;;;;15.60;6.43;;;;;;;;;;5065245;28;20557;-58
2021/01/05 07:52:37;;;;;;;12.80;6.07;;;;;;;;;;5049767;28;20051;-58
2021/01/05 07:55:06;;;;;;;12.00;5.88;;;;;;;;;;5066904;28;20074;-59
2021/01/05 07:57:32;;;;;;;12.50;5.93;;;;;;;;;;5057823;28;25411;-59
2021/01/05 07:59:58;;;;;;;11.05;5.90;;;;;;;;;;5053402;28;20036;-59
2021/01/05 08:02:24;;;;;;;12.82;6.45;;;;;;;;;;5059753;28;20040;-59
2021/01/05 08:04:51;;;;;;;11.90;5.75;;;;;;;;;;5053205;28;20064;-59
2021/01/05 08:07:17;;;;;;;12.05;5.70;;;;;;;;;;5062090;28;20032;-59
2021/01/05 08:09:43;;;;;;;13.88;6.32;;;;;;;;;;5051349;28;20090;-58
2021/01/05 08:12:15;;;;;;;10.93;5.53;;;;;;;;;;5057731;28;21741;-59
2021/01/05 08:14:42;;;;;;;13.00;6.35;;;;;;;;;;5064775;28;20040;-58
2021/01/05 08:17:08;;;;;;;11.00;6.05;;;;;;;;;;5052216;28;20040;-59
2021/01/05 08:19:34;;;;;;;10.88;5.38;;;;;;;;;;5055355;28;20040;-59
2021/01/05 08:22:00;;;;;;;14.07;6.55;;;;;;;;;;5057756;28;20639;-58
2021/01/05 08:24:26;;;;;;;13.48;6.53;;;;;;;;;;5054403;28;20044;-59
2021/01/05 08:26:52;;;;;;;13.60;6.70;;;;;;;;;;5058577;28;20032;-58
2021/01/05 08:29:18;;;;;;;13.48;6.68;;;;;;;;;;5051875;28;20047;-58
2021/01/05 08:31:45;;;;;;;11.63;6.20;;;;;;;;;;5044068;28;20033;-57
2021/01/05 08:34:11;;;;;;;12.05;6.50;;;;;;;;;;5058436;28;20050;-59
2021/01/05 08:36:37;;;;;;;15.35;6.68;;;;;;;;;;5068265;28;20029;-58
2021/01/05 08:39:04;;;;;;;12.82;6.25;;;;;;;;;;5057794;28;20563;-58
2021/01/05 08:41:30;;;;;;;14.68;7.03;;;;;;;;;;5053095;28;20040;-58
2021/01/05 08:43:56;;;;;;;12.57;6.88;;;;;;;;;;5052739;28;20099;-59
2021/01/05 08:46:23;;;;;;;14.40;7.13;;;;;;;;;;5046247;28;20521;-59
2021/01/05 08:48:49;;;;;;;14.95;7.25;;;;;;;;;;5059960;28;20179;-59
2021/01/05 08:51:16;;;;;;;14.90;7.88;;;;;;;;;;5068408;28;20036;-59
2021/01/05 08:53:42;;;;;;;18.30;8.45;;;;;;;;;;5042310;28;20477;-58
2021/01/05 08:56:15;;;;;;;13.02;6.85;;;;;;;;;;5059551;28;20813;-58
2021/01/05 08:58:41;;;;;;;13.85;7.15;;;;;;;;;;5059366;28;20036;-57
2021/01/05 09:01:07;;;;;;;15.13;7.07;;;;;;;;;;5063535;28;20112;-59
2021/01/05 09:03:33;;;;;;;16.60;8.10;;;;;;;;;;5058188;28;20043;-58
2021/01/05 09:05:59;;;;;;;14.15;6.97;;;;;;;;;;5065098;28;20048;-58
2021/01/05 09:08:30;;;;;;;14.18;7.78;;;;;;;;;;5062966;28;20028;-57
2021/01/05 09:10:56;;;;;;;12.50;7.32;;;;;;;;;;5062695;28;20045;-58
2021/01/05 09:13:24;;;;;;;12.68;6.95;;;;;;;;;;5055533;28;20436;-58
2021/01/05 09:15:52;;;;;;;15.82;7.50;;;;;;;;;;5061932;28;20397;-59
2021/01/05 09:18:18;;;;;;;13.93;7.80;;;;;;;;;;5060717;28;20036;-58
2021/01/05 09:20:45;;;;;;;13.95;7.07;;;;;;;;;;5062634;28;20520;-58
2021/01/05 09:23:11;;;;;;;15.13;8.35;;;;;;;;;;5056087;28;20051;-58
2021/01/05 09:25:38;;;;;;;14.20;7.63;;;;;;;;;;5047335;28;20177;-58
2021/01/05 09:28:04;;;;;;;15.52;7.78;;;;;;;;;;5059414;28;20044;-59
2021/01/05 09:30:30;;;;;;;14.95;7.45;;;;;;;;;;5064457;28;20044;-58
2021/01/05 09:32:56;;;;;;;15.10;7.43;;;;;;;;;;5062602;28;20508;-58
2021/01/05 09:35:22;;;;;;;15.32;8.77;;;;;;;;;;5055647;28;20048;-59
2021/01/05 09:37:49;;;;;;;18.55;7.88;;;;;;;;;;5043555;28;20064;-59
2021/01/05 09:40:16;;;;;;;18.67;9.73;;;;;;;;;;5066866;28;20128;-59
2021/01/05 09:42:42;;;;;;;15.05;8.13;;;;;;;;;;5061908;28;20033;-59
2021/01/05 09:45:08;;;;;;;19.33;9.60;;;;;;;;;;5061302;28;20044;-59
2021/01/05 09:47:34;;;;;;;17.20;9.45;;;;;;;;;;5063465;28;20071;-59
2021/01/05 09:50:00;;;;;;;19.23;9.48;;;;;;;;;;5059886;28;20036;-58
2021/01/05 09:52:26;;;;;;;18.98;9.25;;;;;;;;;;5062219;28;20044;-59
2021/01/05 09:54:52;;;;;;;19.23;9.50;;;;;;;;;;5059551;28;20040;-59
2021/01/05 09:57:18;;;;;;;17.42;9.88;;;;;;;;;;5069920;28;20044;-59
2021/01/05 09:59:45;;;;;;;18.95;9.35;;;;;;;;;;5060901;28;20064;-63
2021/01/05 10:02:12;;;;;;;23.75;10.23;;;;;;;;;;5059646;28;20131;-59
2021/01/05 10:04:38;;;;;;;19.42;10.10;;;;;;;;;;5061317;28;20062;-63
2021/01/05 10:07:04;;;;;;;15.52;9.23;;;;;;;;;;5051159;28;20041;-61
2021/01/05 10:09:30;;;;;;;20.55;9.30;;;;;;;;;;5064876;28;20397;-59
2021/01/05 10:11:56;;;;;;;18.30;9.38;;;;;;;;;;5062968;28;20032;-62
2021/01/05 10:14:22;;;;;;;20.52;10.30;;;;;;;;;;5064891;28;21615;-59
2021/01/05 10:16:58;;;;;;;19.20;9.10;;;;;;;;;;5059400;28;20028;-59
2021/01/05 10:19:25;;;;;;;22.02;10.02;;;;;;;;;;5059050;28;20505;-58
2021/01/05 10:21:51;;;;;;;21.25;9.93;;;;;;;;;;5053029;28;20048;-59
2021/01/05 10:24:17;;;;;;;22.58;10.40;;;;;;;;;;5058647;28;20410;-59
2021/01/05 10:26:49;;;;;;;21.40;10.07;;;;;;;;;;5053090;28;20037;-58
2021/01/05 10:29:15;;;;;;;18.05;9.95;;;;;;;;;;5052032;28;20093;-59
2021/01/05 10:31:42;;;;;;;19.67;8.95;;;;;;;;;;5057398;28;20037;-59
2021/01/05 10:34:09;;;;;;;20.15;10.15;;;;;;;;;;5060690;28;20028;-58
2021/01/05 10:36:35;;;;;;;20.48;9.60;;;;;;;;;;5055950;28;20032;-59
2021/01/05 10:39:01;;;;;;;19.92;9.48;;;;;;;;;;5052954;28;20110;-58
2021/01/05 10:41:39;;;;;;;21.02;9.85;;;;;;;;;;5053923;28;21680;-58
2021/01/05 10:44:07;;;;;;;18.70;8.65;;;;;;;;;;5059796;28;20064;-58
2021/01/05 10:46:33;;;;;;;20.25;9.93;;;;;;;;;;5058831;28;20044;-58
2021/01/05 10:49:00;;;;;;;17.77;8.63;;;;;;;;;;5053245;28;20520;-58
2021/01/05 10:51:26;;;;;;;18.40;9.05;;;;;;;;;;5054632;28;20033;-59
2021/01/05 10:53:52;;;;;;;20.08;8.80;;;;;;;;;;5044171;28;20066;-58
2021/01/05 10:56:18;;;;;;;17.95;9.10;;;;;;;;;;5056800;28;20043;-59
2021/01/05 10:58:45;;;;;;;16.02;8.20;;;;;;;;;;5052247;28;20036;-59
2021/01/05 11:01:11;;;;;;;17.50;8.90;;;;;;;;;;5052349;28;20043;-58
2021/01/05 11:03:37;;;;;;;21.55;8.93;;;;;;;;;;5059075;28;20077;-58
2021/01/05 11:06:04;;;;;;;20.48;8.60;;;;;;;;;;5037100;28;20490;-59
2021/01/05 11:08:30;;;;;;;21.58;8.77;;;;;;;;;;5053117;28;20032;-59
2021/01/05 11:10:56;;;;;;;17.48;8.43;;;;;;;;;;5061107;28;20584;-58
2021/01/05 11:13:22;;;;;;;18.20;8.50;;;;;;;;;;5058208;28;20071;-58
2021/01/05 11:15:48;;;;;;;21.55;8.98;;;;;;;;;;5056590;28;20138;-59
2021/01/05 11:18:14;;;;;;;18.35;8.52;;;;;;;;;;5057111;28;20068;-58
2021/01/05 11:20:41;;;;;;;16.58;8.95;;;;;;;;;;5058355;28;20047;-58
2021/01/05 11:23:08;;;;;;;15.43;8.43;;;;;;;;;;5058748;28;20053;-59
2021/01/05 11:25:35;;;;;;;20.83;8.85;;;;;;;;;;5047954;28;20410;-59
2021/01/05 11:28:00;;;;;;;18.33;8.70;;;;;;;;;;5057725;28;20601;-59
2021/01/05 11:30:26;;;;;;;15.95;8.40;;;;;;;;;;5047529;28;20040;-59
2021/01/05 11:32:52;;;;;;;19.23;8.13;;;;;;;;;;5060558;28;20038;-59
2021/01/05 11:35:19;;;;;;;18.42;8.75;;;;;;;;;;5054113;28;20544;-59
2021/01/05 11:37:45;;;;;;;14.73;8.30;;;;;;;;;;5061455;28;20056;-59
2021/01/05 11:40:12;;;;;;;14.70;8.02;;;;;;;;;;5061077;28;20059;-59
2021/01/05 11:42:38;;;;;;;16.23;7.90;;;;;;;;;;5062794;28;20036;-59
2021/01/05 11:45:08;;;;;;;11.93;6.93;;;;;;;;;;5067512;28;20387;-59
2021/01/05 11:47:34;;;;;;;11.60;6.47;;;;;;;;;;5063021;28;20505;-59
2021/01/05 11:50:00;;;;;;;12.57;6.22;;;;;;;;;;5060366;28;20041;-59
2021/01/05 11:52:26;;;;;;;15.27;7.00;;;;;;;;;;5067326;28;20070;-59
2021/01/05 11:54:52;;;;;;;12.90;6.55;;;;;;;;;;5070686;28;20044;-59
2021/01/05 11:57:18;;;;;;;12.10;5.93;;;;;;;;;;5067974;28;20630;-59
2021/01/05 11:59:44;;;;;;;10.98;6.13;;;;;;;;;;5062866;28;20136;-59
2021/01/05 12:02:10;;;;;;;12.18;6.82;;;;;;;;;;5069843;28;20036;-59
2021/01/05 12:04:36;;;;;;;9.20;5.85;;;;;;;;;;5068198;28;20071;-59
2021/01/05 12:07:02;;;;;;;8.73;5.45;;;;;;;;;;5065713;28;20154;-59
2021/01/05 12:09:29;;;;;;;10.82;5.93;;;;;;;;;;5057586;28;20044;-59
2021/01/05 12:12:06;;;;;;;9.95;5.95;;;;;;;;;;5065813;28;20080;-59
2021/01/05 12:14:33;;;;;;;12.82;6.90;;;;;;;;;;5058982;28;20115;-59
2021/01/05 12:16:59;;;;;;;12.00;6.15;;;;;;;;;;5059317;28;20112;-59
2021/01/05 12:19:30;;;;;;;11.05;5.63;;;;;;;;;;5058125;28;20048;-58
2021/01/05 12:21:57;;;;;;;14.20;6.45;;;;;;;;;;5065349;28;20048;-59
2021/01/05 12:24:25;;;;;;;11.63;5.97;;;;;;;;;;5060087;28;20047;-59
2021/01/05 12:26:52;;;;;;;12.18;6.35;;;;;;;;;;5063471;28;20040;-58
2021/01/05 12:29:22;;;;;;;14.38;6.72;;;;;;;;;;5061244;28;20036;-59
2021/01/05 12:31:51;;;;;;;10.68;5.45;;;;;;;;;;5066235;28;20107;-59
2021/01/05 12:34:27;;;;;;;11.52;5.95;;;;;;;;;;5053248;28;20036;-59
2021/01/05 12:36:53;;;;;;;12.10;6.15;;;;;;;;;;5054652;28;20228;-57
2021/01/05 12:39:21;;;;;;;10.02;5.72;;;;;;;;;;5040605;28;20456;-58
2021/01/05 12:41:47;;;;;;;10.43;5.72;;;;;;;;;;5055888;28;20505;-59
2021/01/05 12:44:18;;;;;;;10.23;6.15;;;;;;;;;;5059724;28;20627;-59
2021/01/05 12:46:44;;;;;;;12.75;5.82;;;;;;;;;;5057740;28;20041;-59
2021/01/05 12:49:10;;;;;;;12.60;5.85;;;;;;;;;;5056572;28;20037;-60
2021/01/05 12:51:37;;;;;;;11.15;5.85;;;;;;;;;;5050478;28;20380;-59
2021/01/05 12:54:06;;;;;;;10.05;5.55;;;;;;;;;;5043485;28;20387;-59
2021/01/05 12:56:32;;;;;;;10.15;5.78;;;;;;;;;;5037253;28;20037;-59
2021/01/05 12:58:59;;;;;;;7.68;5.22;;;;;;;;;;5030690;28;20067;-59
2021/01/05 13:01:25;;;;;;;8.77;5.40;;;;;;;;;;5047809;28;20402;-59
2021/01/05 13:03:51;;;;;;;6.38;4.57;;;;;;;;;;5054192;28;20482;-59
2021/01/05 13:06:17;;;;;;;7.30;4.47;;;;;;;;;;5055583;28;20043;-59
2021/01/05 13:08:44;;;;;;;8.70;5.15;;;;;;;;;;5055042;28;20058;-59
2021/01/05 13:11:17;;;;;;;7.88;5.18;;;;;;;;;;5055178;28;20949;-59
2021/01/05 13:13:43;;;;;;;6.60;4.40;;;;;;;;;;5053034;28;20043;-59
2021/01/05 13:16:16;;;;;;;10.98;4.85;;;;;;;;;;5054189;28;20041;-59
2021/01/05 13:18:42;;;;;;;6.20;4.30;;;;;;;;;;5056767;28;20035;-59
2021/01/05 13:21:08;;;;;;;6.45;4.50;;;;;;;;;;5052272;28;20044;-59
2021/01/05 13:23:34;;;;;;;9.55;5.18;;;;;;;;;;5053265;28;20043;-59
2021/01/05 13:26:00;;;;;;;7.82;4.82;;;;;;;;;;5050884;28;20032;-59
2021/01/05 13:28:27;;;;;;;7.50;4.50;;;;;;;;;;5048939;28;20750;-59
2021/01/05 13:30:53;;;;;;;6.80;3.90;;;;;;;;;;5047548;28;20604;-59
2021/01/05 13:33:19;;;;;;;5.93;4.13;;;;;;;;;;5027498;28;21066;-59
2021/01/05 13:35:45;;;;;;;5.25;3.83;;;;;;;;;;5026935;28;20119;-59
2021/01/05 13:38:11;;;;;;;5.97;3.80;;;;;;;;;;5049449;28;20040;-59
2021/01/05 13:40:38;;;;;;;5.03;3.50;;;;;;;;;;5047733;28;20054;-59
2021/01/05 13:43:04;;;;;;;6.00;3.30;;;;;;;;;;5050539;28;20047;-59
2021/01/05 13:45:30;;;;;;;4.53;3.15;;;;;;;;;;5050409;28;20033;-59
2021/01/05 13:47:56;;;;;;;5.70;3.80;;;;;;;;;;5057557;28;20524;-59
2021/01/05 13:50:22;;;;;;;4.43;3.28;;;;;;;;;;5059122;28;20043;-59
2021/01/05 13:52:49;;;;;;;4.78;3.30;;;;;;;;;;5040755;28;20505;-59
2021/01/05 13:55:16;;;;;;;5.28;3.55;;;;;;;;;;5064650;28;20393;-59
2021/01/05 13:57:42;;;;;;;4.60;2.80;;;;;;;;;;5064177;28;20029;-59
2021/01/05 14:00:08;;;;;;;4.72;3.45;;;;;;;;;;5055309;28;20069;-59
2021/01/05 14:02:34;;;;;;;4.75;3.20;;;;;;;;;;5058745;28;20036;-59
2021/01/05 14:05:00;;;;;;;6.95;3.60;;;;;;;;;;5061664;28;20040;-59
2021/01/05 14:07:28;;;;;;;7.18;3.75;;;;;;;;;;5043993;28;20035;-59
2021/01/05 14:09:54;;;;;;;7.30;3.63;;;;;;;;;;5058217;28;20048;-59
2021/01/05 14:12:23;;;;;;;7.05;3.72;;;;;;;;;;5041151;28;20029;-59
2021/01/05 14:14:49;;;;;;;5.38;3.63;;;;;;;;;;5058328;28;20090;-59
2021/01/05 14:17:16;;;;;;;7.50;3.50;;;;;;;;;;5058316;28;20043;-59
2021/01/05 14:19:45;;;;;;;6.65;4.15;;;;;;;;;;5054576;28;20044;-59
2021/01/05 14:22:11;;;;;;;6.90;4.25;;;;;;;;;;5057641;28;20047;-59
2021/01/05 14:24:37;;;;;;;6.90;3.88;;;;;;;;;;5056448;28;20040;-59
2021/01/05 14:27:04;;;;;;;6.97;4.43;;;;;;;;;;5055249;28;20094;-59
2021/01/05 14:29:31;;;;;;;6.47;4.00;;;;;;;;;;5052758;28;20494;-59
2021/01/05 14:31:59;;;;;;;8.30;4.45;;;;;;;;;;5052365;28;20143;-59
2021/01/05 14:34:26;;;;;;;7.05;4.75;;;;;;;;;;5049087;28;22704;-59
2021/01/05 14:36:54;;;;;;;8.07;5.07;;;;;;;;;;5057741;28;20115;-59
2021/01/05 14:39:20;;;;;;;7.40;4.95;;;;;;;;;;5055959;28;20155;-59